sensor_id;sensor_type;location;lat;lon;timestamp;temperature;humidity
74540;SHT31;66042;51.090;-115.340;2023-12-20T00:01:15;2.81;67.43
74540;SHT31;66042;51.090;-115.340;2023-12-20T00:03:43;2.82;67.44
74540;SHT31;66042;51.090;-115.340;2023-12-20T00:06:10;2.87;67.38
74540;SHT31;66042;51.090;-115.340;2023-12-20T00:08:37;2.95;67.28
74540;SHT31;66042;51.090;-115.340;2023-12-20T00:11:04;3.03;67.22
74540;SHT31;66042;51.090;-115.340;2023-12-20T00:13:31;3.09;66.84
74540;SHT31;66042;51.090;-115.340;2023-12-20T00:15:58;3.07;66.71
74540;SHT31;66042;51.090;-115.340;2023-12-20T00:18:25;2.98;66.78
74540;SHT31;66042;51.090;-115.340;2023-12-20T00:20:52;2.87;67.01
74540;SHT31;66042;51.090;-115.340;2023-12-20T00:23:18;2.79;67.22
74540;SHT31;66042;51.090;-115.340;2023-12-20T00:25:45;2.73;67.50
74540;SHT31;66042;51.090;-115.340;2023-12-20T00:28:12;2.66;67.62
74540;SHT31;66042;51.090;-115.340;2023-12-20T00:30:39;2.67;67.73
74540;SHT31;66042;51.090;-115.340;2023-12-20T00:33:07;2.65;67.71
74540;SHT31;66042;51.090;-115.340;2023-12-20T00:35:34;2.64;67.83
74540;SHT31;66042;51.090;-115.340;2023-12-20T00:38:01;2.64;67.87
74540;SHT31;66042;51.090;-115.340;2023-12-20T00:40:30;2.64;67.86
74540;SHT31;66042;51.090;-115.340;2023-12-20T00:42:58;2.62;67.98
74540;SHT31;66042;51.090;-115.340;2023-12-20T00:45:25;2.60;68.01
74540;SHT31;66042;51.090;-115.340;2023-12-20T00:47:52;2.60;68.04
74540;SHT31;66042;51.090;-115.340;2023-12-20T00:50:19;2.58;68.10
74540;SHT31;66042;51.090;-115.340;2023-12-20T00:52:47;2.57;68.15
74540;SHT31;66042;51.090;-115.340;2023-12-20T00:55:14;2.55;68.18
74540;SHT31;66042;51.090;-115.340;2023-12-20T00:57:41;2.52;68.30
74540;SHT31;66042;51.090;-115.340;2023-12-20T01:00:08;2.52;68.30
74540;SHT31;66042;51.090;-115.340;2023-12-20T01:02:36;2.52;68.31
74540;SHT31;66042;51.090;-115.340;2023-12-20T01:05:03;2.53;68.39
74540;SHT31;66042;51.090;-115.340;2023-12-20T01:07:32;2.56;68.46
74540;SHT31;66042;51.090;-115.340;2023-12-20T01:09:59;2.58;68.52
74540;SHT31;66042;51.090;-115.340;2023-12-20T01:12:26;2.58;68.40
74540;SHT31;66042;51.090;-115.340;2023-12-20T01:14:54;2.59;68.39
74540;SHT31;66042;51.090;-115.340;2023-12-20T01:17:21;2.56;68.42
74540;SHT31;66042;51.090;-115.340;2023-12-20T01:19:48;2.57;68.34
74540;SHT31;66042;51.090;-115.340;2023-12-20T01:22:15;2.54;68.40
74540;SHT31;66042;51.090;-115.340;2023-12-20T01:24:42;2.55;68.41
74540;SHT31;66042;51.090;-115.340;2023-12-20T01:27:09;2.52;68.44
74540;SHT31;66042;51.090;-115.340;2023-12-20T01:29:36;2.47;68.54
74540;SHT31;66042;51.090;-115.340;2023-12-20T01:32:04;2.46;68.61
74540;SHT31;66042;51.090;-115.340;2023-12-20T01:34:31;2.46;68.62
74540;SHT31;66042;51.090;-115.340;2023-12-20T01:36:59;2.44;68.64
74540;SHT31;66042;51.090;-115.340;2023-12-20T01:39:26;2.39;68.72
74540;SHT31;66042;51.090;-115.340;2023-12-20T01:41:53;2.38;68.77
74540;SHT31;66042;51.090;-115.340;2023-12-20T01:44:20;2.37;68.74
74540;SHT31;66042;51.090;-115.340;2023-12-20T01:46:47;2.35;68.71
74540;SHT31;66042;51.090;-115.340;2023-12-20T01:49:15;2.39;68.72
74540;SHT31;66042;51.090;-115.340;2023-12-20T01:51:42;2.41;68.67
74540;SHT31;66042;51.090;-115.340;2023-12-20T01:54:10;2.44;68.57
74540;SHT31;66042;51.090;-115.340;2023-12-20T01:56:38;2.45;68.50
74540;SHT31;66042;51.090;-115.340;2023-12-20T01:59:07;2.45;68.50
74540;SHT31;66042;51.090;-115.340;2023-12-20T02:01:35;2.38;68.66
74540;SHT31;66042;51.090;-115.340;2023-12-20T02:04:02;2.31;68.92
74540;SHT31;66042;51.090;-115.340;2023-12-20T02:06:30;2.27;68.99
74540;SHT31;66042;51.090;-115.340;2023-12-20T02:08:59;2.24;69.07
74540;SHT31;66042;51.090;-115.340;2023-12-20T02:11:26;2.21;69.12
74540;SHT31;66042;51.090;-115.340;2023-12-20T02:13:54;2.21;69.22
74540;SHT31;66042;51.090;-115.340;2023-12-20T02:16:21;2.25;69.26
74540;SHT31;66042;51.090;-115.340;2023-12-20T02:18:48;2.23;69.38
74540;SHT31;66042;51.090;-115.340;2023-12-20T02:21:15;2.18;69.50
74540;SHT31;66042;51.090;-115.340;2023-12-20T02:23:42;2.17;69.55
74540;SHT31;66042;51.090;-115.340;2023-12-20T02:26:09;2.23;69.49
74540;SHT31;66042;51.090;-115.340;2023-12-20T02:28:39;2.27;69.46
74540;SHT31;66042;51.090;-115.340;2023-12-20T02:31:06;2.28;69.40
74540;SHT31;66042;51.090;-115.340;2023-12-20T02:33:33;2.31;69.37
74540;SHT31;66042;51.090;-115.340;2023-12-20T02:36:00;2.31;69.40
74540;SHT31;66042;51.090;-115.340;2023-12-20T02:38:27;2.31;69.39
74540;SHT31;66042;51.090;-115.340;2023-12-20T02:40:54;2.35;69.24
74540;SHT31;66042;51.090;-115.340;2023-12-20T02:43:22;2.35;69.23
74540;SHT31;66042;51.090;-115.340;2023-12-20T02:45:49;2.36;69.19
74540;SHT31;66042;51.090;-115.340;2023-12-20T02:48:16;2.40;69.09
74540;SHT31;66042;51.090;-115.340;2023-12-20T02:50:45;2.45;68.93
74540;SHT31;66042;51.090;-115.340;2023-12-20T02:53:13;2.46;68.81
74540;SHT31;66042;51.090;-115.340;2023-12-20T02:55:40;2.40;68.91
74540;SHT31;66042;51.090;-115.340;2023-12-20T02:58:07;2.31;69.16
74540;SHT31;66042;51.090;-115.340;2023-12-20T03:00:34;2.30;69.18
74540;SHT31;66042;51.090;-115.340;2023-12-20T03:03:01;2.32;69.08
74540;SHT31;66042;51.090;-115.340;2023-12-20T03:05:29;2.33;69.03
74540;SHT31;66042;51.090;-115.340;2023-12-20T03:07:56;2.35;68.99
74540;SHT31;66042;51.090;-115.340;2023-12-20T03:10:23;2.34;68.90
74540;SHT31;66042;51.090;-115.340;2023-12-20T03:12:50;2.33;68.87
74540;SHT31;66042;51.090;-115.340;2023-12-20T03:15:17;2.36;68.80
74540;SHT31;66042;51.090;-115.340;2023-12-20T03:17:44;2.37;68.80
74540;SHT31;66042;51.090;-115.340;2023-12-20T03:20:11;2.43;68.72
74540;SHT31;66042;51.090;-115.340;2023-12-20T03:22:38;2.50;68.48
74540;SHT31;66042;51.090;-115.340;2023-12-20T03:25:05;2.56;68.24
74540;SHT31;66042;51.090;-115.340;2023-12-20T03:27:32;2.60;68.06
74540;SHT31;66042;51.090;-115.340;2023-12-20T03:29:58;2.64;67.88
74540;SHT31;66042;51.090;-115.340;2023-12-20T03:32:25;2.66;67.69
74540;SHT31;66042;51.090;-115.340;2023-12-20T03:34:52;2.66;67.57
74540;SHT31;66042;51.090;-115.340;2023-12-20T03:37:18;2.65;67.36
74540;SHT31;66042;51.090;-115.340;2023-12-20T03:39:45;2.64;67.24
74540;SHT31;66042;51.090;-115.340;2023-12-20T03:42:12;2.59;67.12
74540;SHT31;66042;51.090;-115.340;2023-12-20T03:44:40;2.56;67.12
74540;SHT31;66042;51.090;-115.340;2023-12-20T03:47:07;2.55;67.06
74540;SHT31;66042;51.090;-115.340;2023-12-20T03:49:34;2.52;67.02
74540;SHT31;66042;51.090;-115.340;2023-12-20T03:52:04;2.49;67.17
74540;SHT31;66042;51.090;-115.340;2023-12-20T03:54:32;2.46;67.11
74540;SHT31;66042;51.090;-115.340;2023-12-20T03:57:00;2.43;67.10
74540;SHT31;66042;51.090;-115.340;2023-12-20T03:59:27;2.38;67.10
74540;SHT31;66042;51.090;-115.340;2023-12-20T04:01:54;2.34;67.16
74540;SHT31;66042;51.090;-115.340;2023-12-20T04:04:21;2.29;67.26
74540;SHT31;66042;51.090;-115.340;2023-12-20T04:06:48;2.26;67.36
74540;SHT31;66042;51.090;-115.340;2023-12-20T04:09:14;2.22;67.40
74540;SHT31;66042;51.090;-115.340;2023-12-20T04:11:41;2.23;67.41
74540;SHT31;66042;51.090;-115.340;2023-12-20T04:14:08;2.19;67.44
74540;SHT31;66042;51.090;-115.340;2023-12-20T04:16:35;2.13;67.57
74540;SHT31;66042;51.090;-115.340;2023-12-20T04:19:02;2.09;67.78
74540;SHT31;66042;51.090;-115.340;2023-12-20T04:21:30;2.06;67.98
74540;SHT31;66042;51.090;-115.340;2023-12-20T04:23:57;2.03;68.11
74540;SHT31;66042;51.090;-115.340;2023-12-20T04:26:23;2.01;68.31
74540;SHT31;66042;51.090;-115.340;2023-12-20T04:28:50;2.01;68.43
74540;SHT31;66042;51.090;-115.340;2023-12-20T04:31:17;2.04;68.55
74540;SHT31;66042;51.090;-115.340;2023-12-20T04:33:43;2.06;68.71
74540;SHT31;66042;51.090;-115.340;2023-12-20T04:36:10;2.09;68.82
74540;SHT31;66042;51.090;-115.340;2023-12-20T04:38:37;2.11;68.91
74540;SHT31;66042;51.090;-115.340;2023-12-20T04:41:04;2.14;68.99
74540;SHT31;66042;51.090;-115.340;2023-12-20T04:43:31;2.14;69.00
74540;SHT31;66042;51.090;-115.340;2023-12-20T04:45:58;2.15;69.00
74540;SHT31;66042;51.090;-115.340;2023-12-20T04:48:25;2.20;69.00
74540;SHT31;66042;51.090;-115.340;2023-12-20T04:50:52;2.21;69.03
74540;SHT31;66042;51.090;-115.340;2023-12-20T04:53:18;2.21;69.08
74540;SHT31;66042;51.090;-115.340;2023-12-20T04:55:45;2.20;69.16
74540;SHT31;66042;51.090;-115.340;2023-12-20T04:58:12;2.20;69.38
74540;SHT31;66042;51.090;-115.340;2023-12-20T05:00:39;2.17;69.67
74540;SHT31;66042;51.090;-115.340;2023-12-20T05:03:06;2.14;69.76
74540;SHT31;66042;51.090;-115.340;2023-12-20T05:05:34;2.17;69.81
74540;SHT31;66042;51.090;-115.340;2023-12-20T05:08:01;2.17;69.88
74540;SHT31;66042;51.090;-115.340;2023-12-20T05:10:29;2.14;70.15
74540;SHT31;66042;51.090;-115.340;2023-12-20T05:12:55;2.10;70.22
74540;SHT31;66042;51.090;-115.340;2023-12-20T05:15:22;2.12;70.30
74540;SHT31;66042;51.090;-115.340;2023-12-20T05:17:49;2.15;70.29
74540;SHT31;66042;51.090;-115.340;2023-12-20T05:20:16;2.20;70.37
74540;SHT31;66042;51.090;-115.340;2023-12-20T05:22:43;2.19;70.43
74540;SHT31;66042;51.090;-115.340;2023-12-20T05:25:10;2.22;70.40
74540;SHT31;66042;51.090;-115.340;2023-12-20T05:27:37;2.25;70.36
74540;SHT31;66042;51.090;-115.340;2023-12-20T05:30:04;2.19;70.52
74540;SHT31;66042;51.090;-115.340;2023-12-20T05:32:32;2.16;70.60
74540;SHT31;66042;51.090;-115.340;2023-12-20T05:34:58;2.14;70.92
74540;SHT31;66042;51.090;-115.340;2023-12-20T05:37:25;2.09;71.17
74540;SHT31;66042;51.090;-115.340;2023-12-20T05:39:52;2.10;71.02
74540;SHT31;66042;51.090;-115.340;2023-12-20T05:42:19;2.12;71.01
74540;SHT31;66042;51.090;-115.340;2023-12-20T05:44:46;2.17;71.02
74540;SHT31;66042;51.090;-115.340;2023-12-20T05:47:13;2.17;71.19
74540;SHT31;66042;51.090;-115.340;2023-12-20T05:49:40;2.13;71.33
74540;SHT31;66042;51.090;-115.340;2023-12-20T05:52:08;2.13;71.34
74540;SHT31;66042;51.090;-115.340;2023-12-20T05:54:35;2.16;71.34
74540;SHT31;66042;51.090;-115.340;2023-12-20T05:57:01;2.17;71.38
74540;SHT31;66042;51.090;-115.340;2023-12-20T05:59:29;2.22;71.35
74540;SHT31;66042;51.090;-115.340;2023-12-20T06:01:55;2.27;71.25
74540;SHT31;66042;51.090;-115.340;2023-12-20T06:04:22;2.31;71.19
74540;SHT31;66042;51.090;-115.340;2023-12-20T06:06:49;2.33;71.14
74540;SHT31;66042;51.090;-115.340;2023-12-20T06:09:16;2.29;71.23
74540;SHT31;66042;51.090;-115.340;2023-12-20T06:11:43;2.28;71.33
74540;SHT31;66042;51.090;-115.340;2023-12-20T06:14:09;2.30;71.30
74540;SHT31;66042;51.090;-115.340;2023-12-20T06:16:36;2.34;71.23
74540;SHT31;66042;51.090;-115.340;2023-12-20T06:19:03;2.41;71.17
74540;SHT31;66042;51.090;-115.340;2023-12-20T06:21:30;2.49;71.04
74540;SHT31;66042;51.090;-115.340;2023-12-20T06:23:58;2.52;70.91
74540;SHT31;66042;51.090;-115.340;2023-12-20T06:26:25;2.51;70.98
74540;SHT31;66042;51.090;-115.340;2023-12-20T06:28:52;2.50;70.96
74540;SHT31;66042;51.090;-115.340;2023-12-20T06:31:19;2.50;70.91
74540;SHT31;66042;51.090;-115.340;2023-12-20T06:33:46;2.50;70.95
74540;SHT31;66042;51.090;-115.340;2023-12-20T06:36:15;2.52;70.91
74540;SHT31;66042;51.090;-115.340;2023-12-20T06:38:42;2.51;70.90
74540;SHT31;66042;51.090;-115.340;2023-12-20T06:41:12;2.52;70.86
74540;SHT31;66042;51.090;-115.340;2023-12-20T06:43:39;2.51;70.80
74540;SHT31;66042;51.090;-115.340;2023-12-20T06:46:07;2.50;70.80
74540;SHT31;66042;51.090;-115.340;2023-12-20T06:48:34;2.50;70.81
74540;SHT31;66042;51.090;-115.340;2023-12-20T06:51:01;2.46;70.97
74540;SHT31;66042;51.090;-115.340;2023-12-20T06:53:28;2.44;71.07
74540;SHT31;66042;51.090;-115.340;2023-12-20T06:55:54;2.41;71.19
74540;SHT31;66042;51.090;-115.340;2023-12-20T06:58:22;2.45;71.14
74540;SHT31;66042;51.090;-115.340;2023-12-20T07:00:50;2.46;71.14
74540;SHT31;66042;51.090;-115.340;2023-12-20T07:03:17;2.52;71.04
74540;SHT31;66042;51.090;-115.340;2023-12-20T07:05:44;2.55;70.94
74540;SHT31;66042;51.090;-115.340;2023-12-20T07:08:11;2.56;70.90
74540;SHT31;66042;51.090;-115.340;2023-12-20T07:10:39;2.62;70.77
74540;SHT31;66042;51.090;-115.340;2023-12-20T07:13:07;2.65;70.55
74540;SHT31;66042;51.090;-115.340;2023-12-20T07:15:34;2.65;70.46
74540;SHT31;66042;51.090;-115.340;2023-12-20T07:18:02;2.55;70.55
74540;SHT31;66042;51.090;-115.340;2023-12-20T07:20:30;2.45;70.76
74540;SHT31;66042;51.090;-115.340;2023-12-20T07:22:57;2.37;71.07
74540;SHT31;66042;51.090;-115.340;2023-12-20T07:25:24;2.35;71.18
74540;SHT31;66042;51.090;-115.340;2023-12-20T07:27:51;2.36;71.18
74540;SHT31;66042;51.090;-115.340;2023-12-20T07:30:18;2.41;71.08
74540;SHT31;66042;51.090;-115.340;2023-12-20T07:32:45;2.44;71.00
74540;SHT31;66042;51.090;-115.340;2023-12-20T07:35:12;2.46;70.92
74540;SHT31;66042;51.090;-115.340;2023-12-20T07:37:41;2.46;70.96
74540;SHT31;66042;51.090;-115.340;2023-12-20T07:40:08;2.40;71.01
74540;SHT31;66042;51.090;-115.340;2023-12-20T07:42:35;2.36;71.09
74540;SHT31;66042;51.090;-115.340;2023-12-20T07:45:02;2.38;71.07
74540;SHT31;66042;51.090;-115.340;2023-12-20T07:47:30;2.37;71.00
74540;SHT31;66042;51.090;-115.340;2023-12-20T07:49:57;2.33;71.11
74540;SHT31;66042;51.090;-115.340;2023-12-20T07:52:24;2.28;71.23
74540;SHT31;66042;51.090;-115.340;2023-12-20T07:54:51;2.25;71.32
74540;SHT31;66042;51.090;-115.340;2023-12-20T07:57:19;2.23;71.49
74540;SHT31;66042;51.090;-115.340;2023-12-20T07:59:46;2.22;71.64
74540;SHT31;66042;51.090;-115.340;2023-12-20T08:02:13;2.26;71.59
74540;SHT31;66042;51.090;-115.340;2023-12-20T08:04:40;2.33;71.47
74540;SHT31;66042;51.090;-115.340;2023-12-20T08:07:07;2.39;71.32
74540;SHT31;66042;51.090;-115.340;2023-12-20T08:09:33;2.42;71.20
74540;SHT31;66042;51.090;-115.340;2023-12-20T08:12:02;2.42;71.16
74540;SHT31;66042;51.090;-115.340;2023-12-20T08:14:29;2.43;71.10
74540;SHT31;66042;51.090;-115.340;2023-12-20T08:16:57;2.44;71.02
74540;SHT31;66042;51.090;-115.340;2023-12-20T08:19:24;2.41;71.11
74540;SHT31;66042;51.090;-115.340;2023-12-20T08:21:51;2.35;71.19
74540;SHT31;66042;51.090;-115.340;2023-12-20T08:24:18;2.33;71.20
74540;SHT31;66042;51.090;-115.340;2023-12-20T08:26:45;2.32;71.24
74540;SHT31;66042;51.090;-115.340;2023-12-20T08:29:15;2.30;71.27
74540;SHT31;66042;51.090;-115.340;2023-12-20T08:31:41;2.28;71.35
74540;SHT31;66042;51.090;-115.340;2023-12-20T08:34:08;2.26;71.37
74540;SHT31;66042;51.090;-115.340;2023-12-20T08:36:37;2.33;71.40
74540;SHT31;66042;51.090;-115.340;2023-12-20T08:39:04;2.39;71.27
74540;SHT31;66042;51.090;-115.340;2023-12-20T08:41:33;2.46;71.07
74540;SHT31;66042;51.090;-115.340;2023-12-20T08:44:00;2.51;71.04
74540;SHT31;66042;51.090;-115.340;2023-12-20T08:46:27;2.55;71.08
74540;SHT31;66042;51.090;-115.340;2023-12-20T08:48:54;2.57;71.00
74540;SHT31;66042;51.090;-115.340;2023-12-20T08:51:21;2.61;70.92
74540;SHT31;66042;51.090;-115.340;2023-12-20T08:53:51;2.63;70.81
74540;SHT31;66042;51.090;-115.340;2023-12-20T08:56:18;2.59;70.87
74540;SHT31;66042;51.090;-115.340;2023-12-20T08:58:45;2.51;71.13
74540;SHT31;66042;51.090;-115.340;2023-12-20T09:01:12;2.48;71.36
74540;SHT31;66042;51.090;-115.340;2023-12-20T09:03:40;2.43;71.50
74540;SHT31;66042;51.090;-115.340;2023-12-20T09:06:07;2.43;71.48
74540;SHT31;66042;51.090;-115.340;2023-12-20T09:08:34;2.44;71.49
74540;SHT31;66042;51.090;-115.340;2023-12-20T09:11:01;2.40;71.73
74540;SHT31;66042;51.090;-115.340;2023-12-20T09:13:28;2.40;71.82
74540;SHT31;66042;51.090;-115.340;2023-12-20T09:15:57;2.42;71.82
74540;SHT31;66042;51.090;-115.340;2023-12-20T09:18:24;2.46;71.87
74540;SHT31;66042;51.090;-115.340;2023-12-20T09:20:51;2.45;71.88
74540;SHT31;66042;51.090;-115.340;2023-12-20T09:23:18;2.46;71.85
74540;SHT31;66042;51.090;-115.340;2023-12-20T09:25:45;2.50;71.80
74540;SHT31;66042;51.090;-115.340;2023-12-20T09:28:12;2.55;71.70
74540;SHT31;66042;51.090;-115.340;2023-12-20T09:30:39;2.55;71.78
74540;SHT31;66042;51.090;-115.340;2023-12-20T09:33:06;2.52;71.95
74540;SHT31;66042;51.090;-115.340;2023-12-20T09:35:33;2.49;72.02
74540;SHT31;66042;51.090;-115.340;2023-12-20T09:38:00;2.49;72.10
74540;SHT31;66042;51.090;-115.340;2023-12-20T09:40:27;2.49;72.11
74540;SHT31;66042;51.090;-115.340;2023-12-20T09:43:09;2.53;72.14
74540;SHT31;66042;51.090;-115.340;2023-12-20T09:45:41;2.59;72.08
74540;SHT31;66042;51.090;-115.340;2023-12-20T09:48:12;2.66;71.96
74540;SHT31;66042;51.090;-115.340;2023-12-20T09:50:42;2.70;71.90
74540;SHT31;66042;51.090;-115.340;2023-12-20T09:53:11;2.71;71.90
74540;SHT31;66042;51.090;-115.340;2023-12-20T09:55:41;2.72;71.82
74540;SHT31;66042;51.090;-115.340;2023-12-20T09:58:08;2.76;71.76
74540;SHT31;66042;51.090;-115.340;2023-12-20T10:00:35;2.81;71.63
74540;SHT31;66042;51.090;-115.340;2023-12-20T10:03:02;2.84;71.54
74540;SHT31;66042;51.090;-115.340;2023-12-20T10:05:33;2.83;71.59
74540;SHT31;66042;51.090;-115.340;2023-12-20T10:08:01;2.82;71.56
74540;SHT31;66042;51.090;-115.340;2023-12-20T10:10:28;2.84;71.57
74540;SHT31;66042;51.090;-115.340;2023-12-20T10:13:02;2.85;71.50
74540;SHT31;66042;51.090;-115.340;2023-12-20T10:15:37;2.90;71.42
74540;SHT31;66042;51.090;-115.340;2023-12-20T10:18:06;2.93;71.40
74540;SHT31;66042;51.090;-115.340;2023-12-20T10:20:33;3.00;71.32
74540;SHT31;66042;51.090;-115.340;2023-12-20T10:23:00;3.06;71.12
74540;SHT31;66042;51.090;-115.340;2023-12-20T10:25:28;3.11;70.93
74540;SHT31;66042;51.090;-115.340;2023-12-20T10:28:10;3.16;70.74
74540;SHT31;66042;51.090;-115.340;2023-12-20T10:30:40;3.20;70.55
74540;SHT31;66042;51.090;-115.340;2023-12-20T10:33:08;3.22;70.38
74540;SHT31;66042;51.090;-115.340;2023-12-20T10:35:35;3.22;70.28
74540;SHT31;66042;51.090;-115.340;2023-12-20T10:38:05;3.22;70.26
74540;SHT31;66042;51.090;-115.340;2023-12-20T10:40:35;3.22;70.20
74540;SHT31;66042;51.090;-115.340;2023-12-20T10:43:03;3.22;70.16
74540;SHT31;66042;51.090;-115.340;2023-12-20T10:45:31;3.22;70.07
74540;SHT31;66042;51.090;-115.340;2023-12-20T10:47:58;3.21;70.03
74540;SHT31;66042;51.090;-115.340;2023-12-20T10:50:27;3.20;70.00
74540;SHT31;66042;51.090;-115.340;2023-12-20T10:52:55;3.20;70.00
74540;SHT31;66042;51.090;-115.340;2023-12-20T10:55:23;3.20;70.02
74540;SHT31;66042;51.090;-115.340;2023-12-20T10:57:52;3.15;70.11
74540;SHT31;66042;51.090;-115.340;2023-12-20T11:00:25;3.09;70.40
74540;SHT31;66042;51.090;-115.340;2023-12-20T11:03:00;3.09;70.50
74540;SHT31;66042;51.090;-115.340;2023-12-20T11:05:33;3.13;70.50
74540;SHT31;66042;51.090;-115.340;2023-12-20T11:11:46;3.22;70.40
74540;SHT31;66042;51.090;-115.340;2023-12-20T11:14:49;3.22;70.42
74540;SHT31;66042;51.090;-115.340;2023-12-20T11:17:22;3.22;70.40
74540;SHT31;66042;51.090;-115.340;2023-12-20T11:22:27;3.23;70.46
74540;SHT31;66042;51.090;-115.340;2023-12-20T11:25:14;3.27;70.38
74540;SHT31;66042;51.090;-115.340;2023-12-20T11:27:42;3.28;70.29
74540;SHT31;66042;51.090;-115.340;2023-12-20T11:30:10;3.28;70.21
74540;SHT31;66042;51.090;-115.340;2023-12-20T11:32:40;3.26;70.17
74540;SHT31;66042;51.090;-115.340;2023-12-20T11:37:36;3.26;70.10
74540;SHT31;66042;51.090;-115.340;2023-12-20T11:40:08;3.27;70.02
74540;SHT31;66042;51.090;-115.340;2023-12-20T11:42:42;3.21;70.13
74540;SHT31;66042;51.090;-115.340;2023-12-20T11:45:13;3.22;70.20
74540;SHT31;66042;51.090;-115.340;2023-12-20T11:47:43;3.27;70.12
74540;SHT31;66042;51.090;-115.340;2023-12-20T11:50:15;3.30;70.00
74540;SHT31;66042;51.090;-115.340;2023-12-20T11:52:43;3.32;70.00
74540;SHT31;66042;51.090;-115.340;2023-12-20T11:55:10;3.31;70.04
74540;SHT31;66042;51.090;-115.340;2023-12-20T11:57:38;3.32;70.09
74540;SHT31;66042;51.090;-115.340;2023-12-20T12:00:05;3.28;70.17
74540;SHT31;66042;51.090;-115.340;2023-12-20T12:02:32;3.26;70.21
74540;SHT31;66042;51.090;-115.340;2023-12-20T12:05:00;3.26;70.20
74540;SHT31;66042;51.090;-115.340;2023-12-20T12:07:27;3.28;70.20
74540;SHT31;66042;51.090;-115.340;2023-12-20T12:09:54;3.26;70.23
74540;SHT31;66042;51.090;-115.340;2023-12-20T12:12:21;3.21;70.56
74540;SHT31;66042;51.090;-115.340;2023-12-20T12:14:48;3.13;70.77
74540;SHT31;66042;51.090;-115.340;2023-12-20T12:17:15;3.10;70.87
74540;SHT31;66042;51.090;-115.340;2023-12-20T12:19:43;3.11;70.88
74540;SHT31;66042;51.090;-115.340;2023-12-20T12:22:13;3.16;70.82
74540;SHT31;66042;51.090;-115.340;2023-12-20T12:24:42;3.22;70.71
74540;SHT31;66042;51.090;-115.340;2023-12-20T12:27:10;3.23;70.65
74540;SHT31;66042;51.090;-115.340;2023-12-20T12:29:39;3.26;70.61
74540;SHT31;66042;51.090;-115.340;2023-12-20T12:32:07;3.33;70.49
74540;SHT31;66042;51.090;-115.340;2023-12-20T12:34:35;3.37;70.33
74540;SHT31;66042;51.090;-115.340;2023-12-20T12:37:05;3.37;70.30
74540;SHT31;66042;51.090;-115.340;2023-12-20T12:39:32;3.38;70.22
74540;SHT31;66042;51.090;-115.340;2023-12-20T12:42:00;3.38;70.14
74540;SHT31;66042;51.090;-115.340;2023-12-20T12:44:28;3.38;70.14
74540;SHT31;66042;51.090;-115.340;2023-12-20T12:46:55;3.41;70.04
74540;SHT31;66042;51.090;-115.340;2023-12-20T12:49:22;3.43;69.95
74540;SHT31;66042;51.090;-115.340;2023-12-20T12:51:51;3.44;69.87
74540;SHT31;66042;51.090;-115.340;2023-12-20T12:54:17;3.44;69.77
74540;SHT31;66042;51.090;-115.340;2023-12-20T12:56:45;3.45;69.70
74540;SHT31;66042;51.090;-115.340;2023-12-20T12:59:13;3.40;69.70
74540;SHT31;66042;51.090;-115.340;2023-12-20T13:01:39;3.35;69.81
74540;SHT31;66042;51.090;-115.340;2023-12-20T13:04:06;3.35;69.90
74540;SHT31;66042;51.090;-115.340;2023-12-20T13:06:39;3.39;69.85
74540;SHT31;66042;51.090;-115.340;2023-12-20T13:09:07;3.45;69.75
74540;SHT31;66042;51.090;-115.340;2023-12-20T13:11:37;3.47;69.57
74540;SHT31;66042;51.090;-115.340;2023-12-20T13:14:05;3.46;69.51
74540;SHT31;66042;51.090;-115.340;2023-12-20T13:16:36;3.42;69.56
74540;SHT31;66042;51.090;-115.340;2023-12-20T13:19:02;3.43;69.60
74540;SHT31;66042;51.090;-115.340;2023-12-20T13:21:30;3.48;69.49
74540;SHT31;66042;51.090;-115.340;2023-12-20T13:23:58;3.48;69.32
74540;SHT31;66042;51.090;-115.340;2023-12-20T13:26:25;3.43;69.37
74540;SHT31;66042;51.090;-115.340;2023-12-20T13:28:52;3.39;69.39
74540;SHT31;66042;51.090;-115.340;2023-12-20T13:31:20;3.37;69.39
74540;SHT31;66042;51.090;-115.340;2023-12-20T13:33:47;3.39;69.36
74540;SHT31;66042;51.090;-115.340;2023-12-20T13:36:14;3.40;69.30
74540;SHT31;66042;51.090;-115.340;2023-12-20T13:38:42;3.38;69.30
74540;SHT31;66042;51.090;-115.340;2023-12-20T13:41:09;3.37;69.31
74540;SHT31;66042;51.090;-115.340;2023-12-20T13:43:36;3.35;69.32
74540;SHT31;66042;51.090;-115.340;2023-12-20T13:46:03;3.26;69.50
74540;SHT31;66042;51.090;-115.340;2023-12-20T13:48:30;3.22;69.60
74540;SHT31;66042;51.090;-115.340;2023-12-20T13:50:57;3.22;69.67
74540;SHT31;66042;51.090;-115.340;2023-12-20T13:53:25;3.21;69.69
74540;SHT31;66042;51.090;-115.340;2023-12-20T13:55:52;3.23;69.67
74540;SHT31;66042;51.090;-115.340;2023-12-20T13:58:19;3.28;69.57
74540;SHT31;66042;51.090;-115.340;2023-12-20T14:00:46;3.31;69.51
74540;SHT31;66042;51.090;-115.340;2023-12-20T14:03:13;3.31;69.42
74540;SHT31;66042;51.090;-115.340;2023-12-20T14:05:40;3.26;69.49
74540;SHT31;66042;51.090;-115.340;2023-12-20T14:08:07;3.18;69.64
74540;SHT31;66042;51.090;-115.340;2023-12-20T14:10:35;3.16;69.70
74540;SHT31;66042;51.090;-115.340;2023-12-20T14:13:04;3.20;69.68
74540;SHT31;66042;51.090;-115.340;2023-12-20T14:15:31;3.19;69.66
74540;SHT31;66042;51.090;-115.340;2023-12-20T14:18:05;3.16;69.75
74540;SHT31;66042;51.090;-115.340;2023-12-20T14:20:33;3.15;69.81
74540;SHT31;66042;51.090;-115.340;2023-12-20T14:23:01;3.17;69.79
74540;SHT31;66042;51.090;-115.340;2023-12-20T14:25:29;3.18;69.72
74540;SHT31;66042;51.090;-115.340;2023-12-20T14:27:56;3.16;69.71
74540;SHT31;66042;51.090;-115.340;2023-12-20T14:30:24;3.18;69.71
74540;SHT31;66042;51.090;-115.340;2023-12-20T14:32:51;3.23;69.70
74540;SHT31;66042;51.090;-115.340;2023-12-20T14:35:18;3.23;69.62
74540;SHT31;66042;51.090;-115.340;2023-12-20T14:37:45;3.24;69.60
74540;SHT31;66042;51.090;-115.340;2023-12-20T14:40:12;3.25;69.51
74540;SHT31;66042;51.090;-115.340;2023-12-20T14:42:42;3.28;69.45
74540;SHT31;66042;51.090;-115.340;2023-12-20T14:45:11;3.23;69.42
74540;SHT31;66042;51.090;-115.340;2023-12-20T14:47:39;3.25;69.50
74540;SHT31;66042;51.090;-115.340;2023-12-20T14:50:06;3.29;69.46
74540;SHT31;66042;51.090;-115.340;2023-12-20T14:52:33;3.29;69.39
74540;SHT31;66042;51.090;-115.340;2023-12-20T14:55:00;3.29;69.38
74540;SHT31;66042;51.090;-115.340;2023-12-20T14:57:28;3.33;69.36
74540;SHT31;66042;51.090;-115.340;2023-12-20T14:59:55;3.35;69.30
74540;SHT31;66042;51.090;-115.340;2023-12-20T15:02:22;3.35;69.29
74540;SHT31;66042;51.090;-115.340;2023-12-20T15:04:49;3.33;69.30
74540;SHT31;66042;51.090;-115.340;2023-12-20T15:07:16;3.33;69.30
74540;SHT31;66042;51.090;-115.340;2023-12-20T15:09:44;3.33;69.30
74540;SHT31;66042;51.090;-115.340;2023-12-20T15:12:13;3.32;69.41
74540;SHT31;66042;51.090;-115.340;2023-12-20T15:14:39;3.27;69.50